No es requerida especial atención con respecto al clima.   -   No hay avisos meteorológicos

Nearby METAR Reports

 

LEZL - Sevilla, Spain
Distance from station: ESE 25km
Actualizado: 18/12/2018 15:00
Céu Limpo
Céu Limpo
 Vento de N
Vento: N 6 km/h
Temperatura: 16°C
Ponto de Orvalho: 9°C
Humidade: 63%
Barómetro: 1023 hPa
Resumo: Céu Limpo
Visibility: greater than 10 km
2018/12/18 14:00 LEZL 181400Z 35003KT 260V040 CAVOK 16/09 Q1023 NOSIG
LEMO - Morón, Spain
Distance from station: SE 65km
Actualizado: 18/12/2018 15:00
Céu Limpo
Céu Limpo
 Vento de W
Vento: W 7 km/h
Temperatura: 17°C
Ponto de Orvalho: 11°C
Humidade: 68%
Barómetro: 1022 hPa
Resumo: Céu Limpo
Visibility: greater than 10 km
2018/12/18 14:00 LEMO 181400Z 27004KT 220V330 CAVOK 17/11 Q1022 NOSIG
LEJR - Jeréz, Spain
Distance from station: S 87km
Actualizado: 18/12/2018 15:30
Céu Limpo
Céu Limpo
 Vento de S
Vento: S 19 km/h
Temperatura: 20°C
Ponto de Orvalho: 13°C
Humidade: 64%
Barómetro: 1022 hPa
Resumo: Céu Limpo
Visibility: greater than 10 km
2018/12/18 14:30 LEJR 181430Z 17010KT 120V200 CAVOK 20/13 Q1022
 
LERT - Rota, Spain
Distance from station: S 101km
Actualizado: 18/12/2018 15:00
Céu Limpo
Céu Limpo
 Vento de S
Vento: S 24 km/h
Temperatura: 18°C
Ponto de Orvalho: 13°C
Humidade: 73%
Barómetro: 1023 hPa
Resumo: Céu Limpo
Visibility: greater than 10 km
2018/12/18 14:00 LERT 181400Z 17013KT CAVOK 18/13 Q1023 NOSIG
LEMG - Málaga, Spain
Distance from station: ESE 178km
Actualizado: 18/12/2018 15:00
Few Clouds
Few Clouds
 Vento de SE
Vento: SE 9 km/h
Temperatura: 17°C
Ponto de Orvalho: 9°C
Humidade: 59%
Barómetro: 1024 hPa
Clouds: Few Clouds
Visibility: 10 km
Cloud details: Few Clouds 914 m
2018/12/18 14:00 LEMG 181400Z 13005KT 100V160 9999 FEW030 17/09 Q1024 NOSIG
LEBA - Córdoba, Spain
Distance from station: ENE 123km
Actualizado: 18/12/2018 15:00
Céu Limpo
Céu Limpo
 Vento de E
Vento: E 7 km/h
Temperatura: 14°C
Ponto de Orvalho: 7°C
Humidade: 63%
Barómetro: 1023 hPa
Resumo: Céu Limpo
Visibility: greater than 10 km
2018/12/18 14:00 LEBA 181400Z 08004KT 050V120 CAVOK 14/07 Q1023
 
LEGR - Granada, Spain
Distance from station: E 215km
Actualizado: 18/12/2018 15:00
Céu Limpo
Céu Limpo
 Vento de varies
Vento: varies 2 km/h
Temperatura: 16°C
Ponto de Orvalho: 7°C
Humidade: 55%
Barómetro: 1023 hPa
Resumo: Céu Limpo
Visibility: greater than 10 km
2018/12/18 14:00 LEGR 181400Z VRB01KT CAVOK 16/07 Q1023
LEAM - Almería, Spain
Distance from station: E 344km
Actualizado: 18/12/2018 15:00
Céu Limpo
Céu Limpo
 Vento de SSW
Vento: SSW 13 km/h
Temperatura: 17°C
Ponto de Orvalho: 11°C
Humidade: 68%
Barómetro: 1023 hPa
Resumo: Céu Limpo
Visibility: greater than 10 km
2018/12/18 14:00 LEAM 181400Z 20007KT 150V230 CAVOK 17/11 Q1023
GCLP - Las Palmas/Aeropuerto, Spain
Distance from station: SO 1410km
Actualizado: 18/12/2018 15:00
Céu Limpo
Céu Limpo
 Vento de ESE
Vento: ESE 9 km/h
Temperatura: 22°C
Ponto de Orvalho: 13°C
Humidade: 57%
Barómetro: 1023 hPa
Resumo: Céu Limpo
Visibility: greater than 10 km
2018/12/18 14:00 GCLP 181400Z 11005KT 040V150 CAVOK 22/13 Q1023 NOSIG
 
LEMD - Madrid/Barajas, Spain
Distance from station: NNE 402km
Actualizado: 18/12/2018 15:00
Muito nublado
Muito nublado
 Vento de SSE
Vento: SSE 6 km/h
Temperatura: 8°C
Ponto de Orvalho: 3°C
Humidade: 71%
Barómetro: 1022 hPa
Clouds: Muito nublado
Visibility: 10 km
Cloud details: Muito nublado 1189 m
2018/12/18 14:00 LEMD 181400Z 16003KT 110V260 9999 BKN039 08/03 Q1022 NOSIG
LEVD - Valladolid, Spain
Distance from station: N 492km
Actualizado: 18/12/2018 15:00
Few Clouds
Few Clouds
 Vento de SSW
Vento: SSW 28 km/h
Temperatura: 7°C
Wind Chill: 3°C
Ponto de Orvalho: 2°C
Humidade: 71%
Barómetro: 1017 hPa
Clouds: Few Clouds
Visibility: 10 km
Cloud details: Few Clouds 1219 m
2018/12/18 14:00 LEVD 181400Z 21015KT 9999 FEW040 07/02 Q1017
LEBL - Barcelona, Spain
Distance from station: NE 816km
Actualizado: 18/12/2018 15:00
Few Clouds
Few Clouds
 Vento de SW
Vento: SW 15 km/h
Temperatura: 14°C
Ponto de Orvalho: 9°C
Humidade: 72%
Barómetro: 1022 hPa
Clouds: Few Clouds
Visibility: 10 km
Cloud details: Few Clouds 762 m
2018/12/18 14:00 LEBL 181400Z 22008KT 9999 FEW025 14/09 Q1022 NOSIG